Terminal Aerodrome Forecast
Issued by NWS

Home | Current Version | Previous Version | Text Only | Print | Product List | Glossary On
Versions: 1 2 3 4 5 6 7 8 9 10 11 12 13 14 15 16 17 18 19 20 21 22
000
FTUS42 KGSP 301400 AAB
TAFAND
TAF AMD
KAND 301408Z 3014/0112 33003KT P6SM SCT003
      TEMPO 3014/3015 00000KT OVC003
     FM301500 VRB03KT P6SM FEW050
     FM010500 00000KT 5SM BR FEW250=

USA.gov is the U.S. government's official web portal to all federal, state and local government web resources and services.